Nearby METAR Reports

 

KMTN - Baltimore/Martin, Maryland, USA
Distance from station: SSE 8mi, 13km
Updated: Mon, 01-Sep-2014 6:45am EDT
Few Clouds
Few Clouds
 Wind from calm
Wind: Calm
Temperature: 75°F , 24°C
Dew Point: 75°F , 24°C
Humidity: 100%
Barometer: 30.04 inHg , 1017.3 hPa
Clouds: Few Clouds
Visibility: 10 miles , 16 km
Cloud details: Few Clouds 6000 ft
2014/09/01 10:45 KMTN 011045Z 00000KT 10SM FEW060 24/24 A3004
KDMH - Baltimore/Dwntwn, Maryland, USA
Distance from station: SW 12mi, 19km
Updated: Mon, 01-Sep-2014 6:54am EDT

 
Temperature: 75°F , 24°C
Dew Point: 72°F , 22°C
Humidity: 89%
Barometer: 30.03 inHg , 1016.9 hPa
2014/09/01 10:54 KDMH 011054Z AUTO 24/22 A3003 RMK AO1 SLP170 T02390222
 
KBWI - Balto/Wash Intl, Maryland, USA
Distance from station: SSW 20mi, 33km
Updated: Mon, 01-Sep-2014 6:54am EDT
Mist, Mostly cloudy
Mist, Mostly cloudy
 Wind from calm
Wind: Calm
Temperature: 73°F , 23°C
Dew Point: 72°F , 22°C
Humidity: 94%
Barometer: 30.03 inHg , 1016.9 hPa
Summary: Mist
Clouds: Mostly cloudy
Visibility: 3 miles , 5 km
Cloud details: Few Clouds 1000 ft
Partly cloudy 6500 ft
Mostly cloudy 14000 ft
Mostly cloudy 18000 ft
2014/09/01 10:54 KBWI 011054Z 00000KT 3SM BR FEW010 SCT065 BKN140 BKN180 23/22 A3003 RMK AO2 RAB20E35 SLP167 P0000 T02280222 $
KDMW - Carroll Cnty, Maryland, USA
Distance from station: WNW 30mi, 48km
Updated: Mon, 01-Sep-2014 6:45am EDT
Clear
Clear
 Wind from calm
Wind: Calm
Temperature: 72°F , 22°C
Dew Point: 70°F , 21°C
Humidity: 94%
Barometer: 30.05 inHg , 1017.6 hPa
Clouds: Clear
Visibility: 10 miles , 16 km
2014/09/01 10:45 KDMW 011045Z AUTO 00000KT 10SM CLR 22/21 A3005 RMK AO2 LTG DSNT W
 
KNAK - Annapolis/Naval, Maryland, USA
Distance from station: S 30mi, 48km
Updated: Mon, 01-Sep-2014 6:54am EDT
Few Clouds
Few Clouds
 Wind from calm
Wind: Calm
Temperature: 75°F , 24°C
Dew Point: 72°F , 22°C
Humidity: 89%
Barometer: 30.03 inHg , 1016.9 hPa
Clouds: Few Clouds
Visibility: 10 miles , 16 km
Cloud details: Few Clouds 7000 ft
2014/09/01 10:54 KNAK 011054Z AUTO 00000KT 10SM FEW070 24/22 A3003 RMK AO2 RAB25E44 SLP172 P0000 T02390222
KW29 - Stevensville, Maryland, USA
Distance from station: SSE 31mi, 50km
Updated: Mon, 01-Sep-2014 6:46am EDT
Light rain
Light rain
 Wind from calm
Wind: Calm
Temperature: 73°F , 23°C
Dew Point: 73°F , 23°C
Humidity: 100%
Barometer: 30.04 inHg , 1017.3 hPa
Summary: Light rain
Visibility: 10 miles , 16 km
2014/09/01 10:46 KW29 011046Z AUTO 00000KT 10SM -RA 23/23 A3004 RMK AO1 LTG DSNT SW
 
KCGS - College Park, Maryland, USA
Distance from station: SW 38mi, 61km
Updated: Mon, 01-Sep-2014 6:45am EDT
Mostly cloudy
Mostly cloudy
 Wind from calm
Wind: Calm
Temperature: 73°F , 23°C
Dew Point: 73°F , 23°C
Humidity: 100%
Barometer: 30.04 inHg , 1017.3 hPa
Clouds: Mostly cloudy
Visibility: 10 miles , 16 km
Cloud details: Mostly cloudy 8500 ft
2014/09/01 10:45 KCGS 011045Z AUTO 00000KT 10SM BKN085 23/23 A3004 RMK AO1
KGAI - Gaithersburg, Maryland, USA
Distance from station: WSW 40mi, 65km
Updated: Mon, 01-Sep-2014 6:55am EDT
Mostly cloudy
Mostly cloudy
 Wind from calm
Wind: Calm
Temperature: 72°F , 22°C
Dew Point: 70°F , 21°C
Humidity: 94%
Barometer: 30.08 inHg , 1018.6 hPa
Clouds: Mostly cloudy
Visibility: 8 miles , 13 km
Cloud details: Few Clouds 7000 ft
Mostly cloudy 9500 ft
2014/09/01 10:55 KGAI 011055Z AUTO 00000KT 8SM FEW070 BKN095 22/21 A3008 RMK AO1
 
KTHV - York, Pennsylvania, USA
Distance from station: NNW 40mi, 65km
Updated: Mon, 01-Sep-2014 6:53am EDT
Mist, Few clouds
Mist, Few clouds
 Wind from calm
Wind: Calm
Temperature: 68°F , 20°C
Dew Point: 66°F , 19°C
Humidity: 94%
Barometer: 30.03 inHg , 1016.9 hPa
Summary: Mist
Clouds: Few Clouds
Visibility: 6 miles , 10 km
Cloud details: Few Clouds 5000 ft
2014/09/01 10:53 KTHV 011053Z AUTO 00000KT 6SM BR FEW050 20/19 A3003 RMK AO2 SLP167 T02000194
KFDK - Frederick, Maryland, USA
Distance from station: W 47mi, 75km
Updated: Mon, 01-Sep-2014 6:45am EDT
Mostly cloudy
Mostly cloudy
 Wind from calm
Wind: Calm
Barometer: 30.06 inHg , 1017.9 hPa
Clouds: Mostly cloudy
Visibility: 7 miles , 11 km
Cloud details: Partly cloudy 5000 ft
Mostly cloudy 7000 ft
2014/09/01 10:45 KFDK 011045Z 00000KT 7SM SCT050 BKN070 A3006
 
KESN - Easton/Newnam, Maryland, USA
Distance from station: SSE 48mi, 78km
Updated: Mon, 01-Sep-2014 6:45am EDT
Mostly cloudy
Mostly cloudy
 Wind from calm
Wind: Calm
Temperature: 75°F , 24°C
Dew Point: 75°F , 24°C
Humidity: 100%
Barometer: 30.07 inHg , 1018.3 hPa
Clouds: Mostly cloudy
Visibility: 10 miles , 16 km
Cloud details: Mostly cloudy 10000 ft
2014/09/01 10:45 KESN 011045Z 00000KT 10SM BKN100 24/24 A3007
KDCA - Washington/Natl, Washington D.c., USA
Distance from station: SW 49mi, 79km
Updated: Mon, 01-Sep-2014 6:52am EDT
Mostly cloudy
Mostly cloudy
 Wind from S
Wind: S 3 mph , 6 km/h
Temperature: 77°F , 25°C
Dew Point: 72°F , 22°C
Humidity: 83%
Barometer: 30.05 inHg , 1017.6 hPa
Clouds: Mostly cloudy
Visibility: 10 miles , 16 km
Cloud details: Few Clouds 7500 ft
Mostly cloudy 10000 ft
Mostly cloudy 14000 ft
Mostly cloudy 25000 ft
2014/09/01 10:52 KDCA 011052Z 19003KT 10SM FEW075 BKN100 BKN140 BKN250 25/22 A3005 RMK AO2 SLP174 T02500222
 
KLNS - Lancaster, Pennsylvania, USA
Distance from station: N 49mi, 79km
Updated: Mon, 01-Sep-2014 7:05am EDT
Fog, Overcast
Fog, Overcast
 Wind from calm
Wind: Calm
Temperature: 72°F , 22°C
Dew Point: 70°F , 21°C
Humidity: 94%
Barometer: 30.03 inHg , 1016.9 hPa
Summary: Fog
Clouds: Overcast
Visibility: 1/4 mile , 2 km
Cloud details: Overcast 200 ft
2014/09/01 11:05 KLNS 011105Z 00000KT 1/4SM FG VV002 22/21 A3003 RMK AO2 T02170211 $
KILG - Wilmington, Delaware, USA
Distance from station: ENE 50mi, 81km
Updated: Mon, 01-Sep-2014 6:58am EDT
Overcast
Overcast
 Wind from calm
Wind: Calm
Temperature: 73°F , 23°C
Dew Point: 72°F , 22°C
Humidity: 94%
Barometer: 30.03 inHg , 1016.9 hPa
Clouds: Overcast
Visibility: 9 miles , 14 km
Cloud details: Overcast 400 ft
2014/09/01 10:58 KILG 011058Z 00000KT 9SM OVC004 23/22 A3003 RMK AO2 T02330222